createdAt,value
2018-10-05T00:00:11.190Z,18.67
2018-10-05T00:02:40.139Z,16.57
2018-10-05T00:05:09.235Z,16.00
2018-10-05T00:07:38.181Z,18.10
2018-10-05T00:10:07.510Z,16.60
2018-10-05T00:12:36.543Z,13.68
2018-10-05T00:15:05.532Z,15.25
2018-10-05T00:17:34.462Z,15.30
2018-10-05T00:20:03.403Z,15.50
2018-10-05T00:22:32.354Z,13.53
2018-10-05T00:25:01.311Z,13.28
2018-10-05T00:27:30.283Z,16.05
2018-10-05T00:29:59.247Z,12.55
2018-10-05T00:32:28.235Z,13.00
2018-10-05T00:34:57.226Z,13.95
2018-10-05T00:37:26.182Z,18.40
2018-10-05T00:39:55.177Z,15.70
2018-10-05T00:42:24.174Z,16.37
2018-10-05T00:44:53.127Z,17.27
2018-10-05T00:47:22.147Z,14.30
2018-10-05T00:49:51.075Z,13.00
2018-10-05T00:52:20.094Z,15.72
2018-10-05T00:54:49.042Z,17.37
2018-10-05T00:57:17.978Z,16.00
2018-10-05T00:59:46.950Z,15.78
2018-10-05T01:02:15.907Z,14.00
2018-10-05T01:04:44.887Z,15.45
2018-10-05T01:07:13.838Z,15.55
2018-10-05T01:09:42.802Z,20.43
2018-10-05T01:12:18.595Z,16.15
2018-10-05T01:14:47.538Z,18.25
2018-10-05T01:17:16.551Z,15.55
2018-10-05T01:19:45.570Z,14.55
2018-10-05T01:22:14.525Z,14.80
2018-10-05T01:24:43.631Z,13.98
2018-10-05T01:27:12.513Z,14.53
2018-10-05T01:29:41.495Z,11.12
2018-10-05T01:32:10.453Z,15.50
2018-10-05T01:34:39.382Z,14.80
2018-10-05T01:37:08.362Z,17.32
2018-10-05T01:39:37.294Z,15.90
2018-10-05T01:42:06.362Z,13.70
2018-10-05T01:44:35.295Z,12.13
2018-10-05T01:47:04.299Z,12.37
2018-10-05T01:49:33.250Z,19.02
2018-10-05T01:52:02.215Z,14.28
2018-10-05T01:54:31.199Z,15.08
2018-10-05T01:57:00.145Z,16.37
2018-10-05T01:59:29.084Z,14.47
2018-10-05T02:01:58.095Z,14.80
2018-10-05T02:04:27.023Z,14.43
2018-10-05T02:06:55.990Z,14.20
2018-10-05T02:09:24.919Z,14.63
2018-10-05T02:11:53.951Z,13.05
2018-10-05T02:14:22.903Z,12.40
2018-10-05T02:16:51.840Z,11.97
2018-10-05T02:19:20.831Z,16.25
2018-10-05T02:21:49.762Z,14.95
2018-10-05T02:24:18.702Z,12.53
2018-10-05T02:26:47.669Z,13.95
2018-10-05T02:29:16.606Z,14.40
2018-10-05T02:31:45.571Z,16.57
2018-10-05T02:34:14.874Z,15.72
2018-10-05T02:36:43.959Z,14.78
2018-10-05T02:39:13.770Z,15.45
2018-10-05T02:41:42.925Z,11.70
2018-10-05T02:44:11.894Z,15.00
2018-10-05T02:46:40.844Z,14.93
2018-10-05T02:49:09.796Z,17.23
2018-10-05T02:51:38.747Z,15.18
2018-10-05T02:54:07.699Z,16.00
2018-10-05T02:56:36.631Z,13.18
2018-10-05T02:59:05.605Z,13.90
2018-10-05T03:01:45.895Z,12.07
2018-10-05T03:04:14.931Z,15.80
2018-10-05T03:06:43.859Z,13.60
2018-10-05T03:09:12.790Z,12.43
2018-10-05T03:11:41.727Z,13.18
2018-10-05T03:14:10.715Z,14.77
2018-10-05T03:16:39.667Z,14.68
2018-10-05T03:19:08.638Z,11.90
2018-10-05T03:21:38.221Z,13.15
2018-10-05T03:24:07.929Z,11.45
2018-10-05T03:26:37.610Z,12.35
2018-10-05T03:29:07.195Z,9.70
2018-10-05T03:31:37.276Z,13.53
2018-10-05T03:34:07.378Z,11.75
2018-10-05T03:36:37.174Z,12.73
2018-10-05T03:39:08.076Z,15.10
2018-10-05T03:41:37.712Z,14.17
2018-10-05T03:44:07.098Z,14.27
2018-10-05T03:46:36.047Z,11.30
2018-10-05T03:49:05.003Z,13.15
2018-10-05T03:51:33.946Z,12.70
2018-10-05T03:54:02.927Z,13.50
2018-10-05T03:56:31.950Z,15.93
2018-10-05T03:59:00.924Z,13.30
2018-10-05T04:01:29.874Z,13.65
2018-10-05T04:03:58.838Z,15.13
2018-10-05T04:06:27.797Z,11.08
2018-10-05T04:08:56.770Z,12.60
2018-10-05T04:11:25.718Z,11.68
2018-10-05T04:13:54.698Z,12.23
2018-10-05T04:16:23.650Z,14.65
2018-10-05T04:18:52.625Z,11.10
2018-10-05T04:21:21.561Z,15.13
2018-10-05T04:23:50.496Z,13.80
2018-10-05T04:26:19.463Z,14.13
2018-10-05T04:28:48.413Z,15.80
2018-10-05T04:31:17.598Z,14.70
2018-10-05T04:33:46.555Z,17.50
2018-10-05T04:36:15.500Z,14.13
2018-10-05T04:38:44.431Z,17.75
2018-10-05T04:41:13.407Z,17.07
2018-10-05T04:43:42.339Z,15.13
2018-10-05T04:46:11.273Z,20.92
2018-10-05T04:48:40.211Z,16.70
2018-10-05T04:51:09.208Z,15.60
2018-10-05T04:53:38.138Z,15.20
2018-10-05T04:56:07.126Z,15.38
2018-10-05T04:58:36.051Z,13.43
2018-10-05T05:01:05.026Z,45.25
2018-10-05T05:03:34.099Z,62.50
2018-10-05T05:06:03.033Z,52.67
2018-10-05T05:08:31.972Z,34.78
2018-10-05T05:11:00.923Z,35.78
2018-10-05T05:13:30.331Z,33.80
2018-10-05T05:15:59.299Z,36.20
2018-10-05T05:18:28.251Z,36.17
2018-10-05T05:20:57.198Z,33.70
2018-10-05T05:23:26.125Z,30.45
2018-10-05T05:25:55.123Z,32.00
2018-10-05T05:28:24.085Z,29.57
2018-10-05T05:30:53.050Z,23.98
2018-10-05T05:33:21.987Z,25.90
2018-10-05T05:35:50.938Z,23.95
2018-10-05T05:38:19.894Z,18.52
2018-10-05T05:40:48.850Z,16.47
2018-10-05T05:43:17.795Z,18.00
2018-10-05T05:45:46.824Z,17.37
2018-10-05T05:48:15.759Z,17.15
2018-10-05T05:50:44.715Z,19.27
2018-10-05T05:53:13.653Z,18.40
2018-10-05T05:55:42.610Z,16.00
2018-10-05T05:58:11.554Z,17.57
2018-10-05T06:00:40.487Z,13.55
2018-10-05T06:03:09.407Z,11.08
2018-10-05T06:05:38.365Z,11.25
2018-10-05T06:08:07.341Z,11.17
2018-10-05T06:10:36.325Z,12.15
2018-10-05T06:13:05.283Z,11.75
2018-10-05T06:15:34.273Z,16.07
2018-10-05T06:18:03.218Z,16.80
2018-10-05T06:20:32.183Z,12.43
2018-10-05T06:23:01.133Z,13.78
2018-10-05T06:25:30.201Z,15.63
2018-10-05T06:27:59.132Z,17.75
2018-10-05T06:30:28.099Z,19.85
2018-10-05T06:32:57.088Z,19.02
2018-10-05T06:35:26.007Z,16.48
2018-10-05T06:37:55.014Z,17.23
2018-10-05T06:40:23.918Z,19.45
2018-10-05T06:42:52.846Z,14.03
2018-10-05T06:45:21.806Z,13.62
2018-10-05T06:47:50.746Z,17.35
2018-10-05T06:50:19.666Z,12.30
2018-10-05T06:52:48.635Z,13.30
2018-10-05T06:55:17.871Z,14.37
2018-10-05T06:57:46.904Z,13.55
2018-10-05T07:00:15.857Z,12.75
2018-10-05T07:02:44.802Z,13.78
2018-10-05T07:05:13.727Z,15.18
2018-10-05T07:07:42.682Z,13.25
2018-10-05T07:10:12.433Z,15.38
2018-10-05T07:12:41.996Z,13.72
2018-10-05T07:15:11.685Z,18.02
2018-10-05T07:17:41.431Z,17.60
2018-10-05T07:20:10.989Z,21.77
2018-10-05T07:22:40.687Z,15.47
2018-10-05T07:25:10.255Z,12.60
2018-10-05T07:27:39.904Z,16.73
2018-10-05T07:30:09.956Z,19.30
2018-10-05T07:32:39.642Z,18.48
2018-10-05T07:35:09.408Z,15.60
2018-10-05T07:37:39.006Z,16.45
2018-10-05T07:40:08.567Z,15.63
2018-10-05T07:42:38.113Z,14.63
2018-10-05T07:45:07.887Z,13.90
2018-10-05T07:47:37.606Z,19.93
2018-10-05T07:50:07.079Z,16.00
2018-10-05T07:52:36.769Z,15.17
2018-10-05T07:55:06.197Z,17.10
2018-10-05T07:57:35.959Z,16.77
2018-10-05T08:00:06.089Z,19.32
2018-10-05T08:02:35.566Z,20.65
2018-10-05T08:05:05.113Z,23.62
2018-10-05T08:07:34.742Z,19.98
2018-10-05T08:10:04.423Z,13.10
2018-10-05T08:12:33.938Z,18.67
2018-10-05T08:15:03.829Z,15.97
2018-10-05T08:17:33.545Z,13.60
2018-10-05T08:20:03.280Z,14.25
2018-10-05T08:22:32.282Z,16.15
2018-10-05T08:25:01.233Z,14.97
2018-10-05T08:27:30.209Z,15.30
2018-10-05T08:29:59.146Z,14.53
2018-10-05T08:32:28.158Z,17.98
2018-10-05T08:34:57.118Z,19.27
2018-10-05T08:37:26.089Z,18.52
2018-10-05T08:39:55.116Z,8.25
2018-10-05T08:42:24.062Z,17.02
2018-10-05T08:44:53.096Z,11.65
2018-10-05T08:47:22.101Z,15.85
2018-10-05T08:49:51.062Z,16.50
2018-10-05T08:52:20.117Z,16.50
2018-10-05T08:54:49.055Z,15.10
2018-10-05T08:57:18.023Z,16.17
2018-10-05T08:59:47.726Z,11.65
2018-10-05T09:02:16.791Z,16.35
2018-10-05T09:04:45.775Z,12.82
2018-10-05T09:07:14.734Z,16.90
2018-10-05T09:09:43.692Z,18.77
2018-10-05T09:12:12.710Z,12.63
2018-10-05T09:14:41.659Z,17.80
2018-10-05T09:17:10.607Z,13.48
2018-10-05T09:19:39.547Z,12.63
2018-10-05T09:22:08.502Z,17.95
2018-10-05T09:24:37.534Z,16.12
2018-10-05T09:27:06.532Z,15.70
2018-10-05T09:29:35.491Z,18.42
2018-10-05T09:32:04.519Z,14.40
2018-10-05T09:34:33.454Z,14.23
2018-10-05T09:37:02.414Z,10.55
2018-10-05T09:39:31.369Z,14.15
2018-10-05T09:42:00.388Z,12.33
2018-10-05T09:44:29.378Z,11.33
2018-10-05T09:46:58.322Z,17.00
2018-10-05T09:49:27.289Z,16.27
2018-10-05T09:51:56.258Z,13.33
2018-10-05T09:54:25.178Z,14.98
2018-10-05T09:56:54.161Z,11.93
2018-10-05T09:59:23.176Z,11.35
2018-10-05T10:01:56.262Z,13.25
2018-10-05T10:04:25.582Z,12.40
2018-10-05T10:06:54.891Z,13.20
2018-10-05T10:09:23.852Z,14.38
2018-10-05T10:11:52.800Z,14.03
2018-10-05T10:14:21.789Z,15.68
2018-10-05T10:16:50.867Z,13.20
2018-10-05T10:19:19.974Z,13.35
2018-10-05T10:21:48.937Z,10.15
2018-10-05T10:24:17.995Z,14.75
2018-10-05T10:26:47.010Z,17.75
2018-10-05T10:29:16.110Z,14.75
2018-10-05T10:31:45.083Z,14.85
2018-10-05T10:34:14.124Z,15.50
2018-10-05T10:36:43.366Z,17.90
2018-10-05T10:39:12.394Z,16.70
2018-10-05T10:41:41.435Z,18.03
2018-10-05T10:44:11.447Z,15.05
2018-10-05T10:46:41.479Z,12.20
2018-10-05T10:49:11.363Z,11.50
2018-10-05T10:51:41.393Z,14.83
2018-10-05T10:54:11.455Z,16.50
2018-10-05T10:56:40.406Z,16.80
2018-10-05T10:59:09.395Z,14.37
2018-10-05T11:01:38.399Z,12.27
2018-10-05T11:04:07.422Z,12.40
2018-10-05T11:06:36.414Z,13.70
2018-10-05T11:09:06.938Z,11.97
2018-10-05T11:11:36.057Z,17.57
2018-10-05T11:14:05.042Z,6.65
2018-10-05T11:16:34.017Z,11.50
2018-10-05T11:19:02.990Z,8.25
2018-10-05T11:21:31.956Z,11.63
2018-10-05T11:24:00.918Z,9.10
2018-10-05T11:26:29.901Z,12.87
2018-10-05T11:28:59.087Z,17.55
2018-10-05T11:31:29.083Z,9.23
2018-10-05T11:33:58.124Z,9.63
2018-10-05T11:36:27.140Z,13.50
2018-10-05T11:38:56.091Z,13.38
2018-10-05T11:41:25.094Z,13.50
2018-10-05T11:43:54.215Z,18.80
2018-10-05T11:46:23.344Z,14.15
2018-10-05T11:48:52.389Z,15.35
2018-10-05T11:51:21.476Z,12.88
2018-10-05T11:53:50.443Z,13.38
2018-10-05T11:56:19.396Z,12.65
2018-10-05T11:58:48.417Z,14.73
2018-10-05T12:01:17.459Z,16.95
2018-10-05T12:03:46.486Z,17.33
2018-10-05T12:06:15.432Z,15.53
2018-10-05T12:08:44.422Z,14.95
2018-10-05T12:11:13.418Z,10.93
2018-10-05T12:13:42.388Z,15.50
2018-10-05T12:16:11.463Z,10.38
2018-10-05T12:18:40.467Z,14.87
2018-10-05T12:21:09.435Z,16.03
2018-10-05T12:23:38.412Z,12.80
2018-10-05T12:26:07.435Z,14.47
2018-10-05T12:28:36.436Z,16.95
2018-10-05T12:31:05.572Z,20.92
2018-10-05T12:33:34.575Z,10.43
2018-10-05T12:36:03.738Z,26.80
2018-10-05T12:38:32.738Z,13.77
2018-10-05T12:41:01.783Z,17.13
2018-10-05T12:43:30.789Z,5.72
2018-10-05T12:46:01.052Z,14.06
2018-10-05T12:48:30.026Z,11.40
2018-10-05T12:50:59.075Z,11.47
2018-10-05T12:53:28.016Z,8.30
2018-10-05T12:55:57.070Z,8.50
2018-10-05T12:58:26.033Z,11.08
2018-10-05T13:00:54.990Z,6.10
2018-10-05T13:03:23.976Z,8.90
2018-10-05T13:05:53.013Z,11.30
2018-10-05T13:08:22.010Z,9.30
2018-10-05T13:10:52.018Z,5.67
2018-10-05T13:13:20.980Z,9.40
2018-10-05T13:15:50.002Z,6.50
2018-10-05T13:18:18.962Z,5.35
2018-10-05T13:20:47.963Z,8.27
2018-10-05T13:23:16.886Z,6.60
2018-10-05T13:25:45.843Z,10.70
2018-10-05T13:28:14.779Z,7.90
2018-10-05T13:30:43.721Z,10.55
2018-10-05T13:33:12.645Z,5.07
2018-10-05T13:35:41.577Z,7.00
2018-10-05T13:38:10.659Z,7.37
2018-10-05T13:40:39.727Z,12.37
2018-10-05T13:43:09.070Z,10.10
2018-10-05T13:45:38.114Z,19.07
2018-10-05T13:48:07.042Z,6.50
2018-10-05T13:50:36.015Z,5.97
2018-10-05T13:53:05.097Z,8.12
2018-10-05T13:55:34.110Z,5.60
2018-10-05T13:58:03.136Z,12.30
2018-10-05T14:00:32.217Z,8.60
2018-10-05T14:03:01.539Z,10.33
2018-10-05T14:05:30.539Z,8.10
2018-10-05T14:07:59.466Z,8.38
2018-10-05T14:10:28.588Z,15.48
2018-10-05T14:12:57.524Z,14.55
2018-10-05T14:15:26.643Z,14.53
2018-10-05T14:17:55.772Z,8.28
2018-10-05T14:20:24.820Z,10.23
2018-10-05T14:22:53.875Z,11.87
2018-10-05T14:25:22.883Z,9.73
2018-10-05T14:27:51.910Z,11.78
2018-10-05T14:30:20.914Z,8.60
2018-10-05T14:32:49.961Z,10.32
2018-10-05T14:35:19.088Z,12.47
2018-10-05T14:37:48.363Z,10.48
2018-10-05T14:40:17.446Z,11.68
2018-10-05T14:42:46.448Z,7.37
2018-10-05T14:45:15.398Z,8.73
2018-10-05T14:47:44.366Z,8.90
2018-10-05T14:50:13.486Z,7.03
2018-10-05T14:52:42.447Z,10.20
2018-10-05T14:55:11.468Z,12.07
2018-10-05T14:57:40.468Z,12.63
2018-10-05T15:00:09.454Z,8.20
2018-10-05T15:02:38.442Z,10.17
2018-10-05T15:05:07.404Z,10.00
2018-10-05T15:07:36.371Z,13.20
2018-10-05T15:10:05.495Z,16.42
2018-10-05T15:12:34.774Z,9.05
2018-10-05T15:15:03.706Z,11.30
2018-10-05T15:17:32.917Z,7.85
2018-10-05T15:20:01.931Z,15.83
2018-10-05T15:22:30.902Z,11.57
2018-10-05T15:24:59.923Z,12.87
2018-10-05T15:27:28.890Z,12.25
2018-10-05T15:29:57.891Z,7.67
2018-10-05T15:32:27.602Z,16.97
2018-10-05T15:34:56.530Z,13.45
2018-10-05T15:37:25.493Z,11.75
2018-10-05T15:39:54.440Z,9.55
2018-10-05T15:42:23.496Z,20.20
2018-10-05T15:44:52.478Z,8.57
2018-10-05T15:47:21.423Z,12.93
2018-10-05T15:49:50.382Z,12.78
2018-10-05T15:52:19.345Z,9.80
2018-10-05T15:54:48.354Z,8.03
2018-10-05T15:57:17.298Z,9.10
2018-10-05T15:59:46.223Z,8.93
2018-10-05T16:02:15.189Z,8.28
2018-10-05T16:04:51.651Z,11.60
2018-10-05T16:07:20.683Z,12.80
2018-10-05T16:09:49.643Z,12.33
2018-10-05T16:12:18.682Z,9.55
2018-10-05T16:14:47.627Z,15.48
2018-10-05T16:17:16.598Z,10.02
2018-10-05T16:19:45.678Z,13.40
2018-10-05T16:22:14.746Z,9.40
2018-10-05T16:24:45.038Z,11.00
2018-10-05T16:27:14.242Z,9.57
2018-10-05T16:29:43.442Z,10.43
2018-10-05T16:32:13.097Z,10.97
2018-10-05T16:34:42.328Z,17.47
2018-10-05T16:37:11.360Z,10.90
2018-10-05T16:39:40.338Z,9.55
2018-10-05T16:42:09.307Z,10.67
2018-10-05T16:44:38.322Z,11.73
2018-10-05T16:47:07.287Z,9.27
2018-10-05T16:49:36.255Z,7.47
2018-10-05T16:52:05.247Z,10.78
2018-10-05T16:54:34.188Z,8.48
2018-10-05T16:57:03.201Z,8.38
2018-10-05T16:59:32.117Z,9.80
2018-10-05T17:02:01.086Z,11.30
2018-10-05T17:04:30.047Z,11.48
2018-10-05T17:06:59.109Z,11.55
2018-10-05T17:09:28.084Z,11.60
2018-10-05T17:11:57.036Z,12.40
2018-10-05T17:14:26.024Z,7.80
2018-10-05T17:16:54.976Z,13.40
2018-10-05T17:19:23.943Z,13.00
2018-10-05T17:21:52.886Z,9.95
2018-10-05T17:24:21.858Z,12.27
2018-10-05T17:26:50.802Z,11.43
2018-10-05T17:29:19.775Z,9.90
2018-10-05T17:31:48.748Z,11.10
2018-10-05T17:34:17.748Z,11.97
2018-10-05T17:36:46.708Z,9.07
2018-10-05T17:39:15.671Z,12.07
2018-10-05T17:41:44.658Z,10.95
2018-10-05T17:44:13.718Z,14.58
2018-10-05T17:46:42.666Z,13.83
2018-10-05T17:49:11.623Z,15.83
2018-10-05T17:51:40.614Z,13.90
2018-10-05T17:54:09.606Z,12.60
2018-10-05T17:56:38.647Z,12.87
2018-10-05T17:59:07.628Z,10.35
2018-10-05T18:01:36.570Z,10.88
2018-10-05T18:04:05.627Z,15.27
2018-10-05T18:06:34.571Z,13.87
2018-10-05T18:09:04.794Z,15.23
2018-10-05T18:11:33.764Z,17.53
2018-10-05T18:14:02.760Z,10.90
2018-10-05T18:16:31.774Z,12.87
2018-10-05T18:19:00.831Z,14.58
2018-10-05T18:21:29.810Z,11.90
2018-10-05T18:23:58.834Z,15.20
2018-10-05T18:26:27.787Z,14.40
2018-10-05T18:28:56.763Z,15.70
2018-10-05T18:31:25.705Z,15.40
2018-10-05T18:33:54.663Z,14.17
2018-10-05T18:36:23.611Z,13.88
2018-10-05T18:38:53.390Z,16.00
2018-10-05T18:41:22.421Z,14.53
2018-10-05T18:43:51.355Z,12.97
2018-10-05T18:46:20.301Z,13.23
2018-10-05T18:48:49.562Z,16.23
2018-10-05T18:51:18.544Z,19.80
2018-10-05T18:53:47.482Z,19.82
2018-10-05T18:56:27.746Z,15.90
2018-10-05T18:58:56.704Z,19.13
2018-10-05T19:01:25.685Z,16.60
2018-10-05T19:03:54.662Z,16.23
2018-10-05T19:06:23.819Z,18.40
2018-10-05T19:08:52.782Z,29.85
2018-10-05T19:11:21.831Z,34.08
2018-10-05T19:13:50.923Z,33.53
2018-10-05T19:16:19.861Z,36.30
2018-10-05T19:18:48.779Z,19.92
2018-10-05T19:21:17.703Z,13.00
2018-10-05T19:23:46.638Z,11.90
2018-10-05T19:26:15.601Z,8.35
2018-10-05T19:28:44.532Z,8.60
2018-10-05T19:31:13.458Z,10.13
2018-10-05T19:33:42.478Z,12.50
2018-10-05T19:36:11.477Z,11.43
2018-10-05T19:38:40.431Z,10.48
2018-10-05T19:41:09.346Z,9.80
2018-10-05T19:43:38.299Z,15.18
2018-10-05T19:46:07.283Z,11.40
2018-10-05T19:48:36.217Z,12.40
2018-10-05T19:51:05.154Z,11.30
2018-10-05T19:53:34.215Z,10.72
2018-10-05T19:56:03.114Z,12.53
2018-10-05T19:58:32.047Z,10.18
2018-10-05T20:01:01.015Z,10.15
2018-10-05T20:03:29.931Z,7.33
2018-10-05T20:05:58.878Z,9.53
2018-10-05T20:08:27.797Z,13.03
2018-10-05T20:10:56.751Z,15.35
2018-10-05T20:13:25.790Z,18.45
2018-10-05T20:15:54.922Z,19.95
2018-10-05T20:18:23.931Z,19.32
2018-10-05T20:20:53.287Z,19.10
2018-10-05T20:23:22.946Z,21.77
2018-10-05T20:25:51.922Z,17.47
2018-10-05T20:28:20.890Z,17.10
2018-10-05T20:30:49.874Z,16.40
2018-10-05T20:33:18.863Z,11.80
2018-10-05T20:35:47.912Z,17.63
2018-10-05T20:38:16.914Z,14.90
2018-10-05T20:40:45.914Z,16.07
2018-10-05T20:43:15.631Z,12.40
2018-10-05T20:45:45.713Z,10.60
2018-10-05T20:48:14.702Z,13.55
2018-10-05T20:50:43.717Z,15.98
2018-10-05T20:53:12.695Z,10.03
2018-10-05T20:55:41.716Z,9.90
2018-10-05T20:58:10.643Z,10.98
2018-10-05T21:00:39.618Z,10.60
2018-10-05T21:03:09.440Z,10.45
2018-10-05T21:05:38.899Z,11.33
2018-10-05T21:08:07.882Z,11.00
2018-10-05T21:10:36.908Z,11.27
2018-10-05T21:13:05.935Z,9.57
2018-10-05T21:15:34.939Z,11.23
2018-10-05T21:18:03.894Z,12.10
2018-10-05T21:20:33.007Z,12.40
2018-10-05T21:23:01.991Z,15.43
2018-10-05T21:25:30.994Z,12.37
2018-10-05T21:28:00.295Z,10.50
2018-10-05T21:30:29.391Z,7.72
2018-10-05T21:32:59.218Z,10.58
2018-10-05T21:35:28.190Z,9.90
2018-10-05T21:37:57.264Z,8.13
2018-10-05T21:40:26.230Z,6.90
2018-10-05T21:42:55.206Z,10.08
2018-10-05T21:45:24.220Z,8.88
2018-10-05T21:47:53.166Z,11.85
2018-10-05T21:50:22.146Z,11.45
2018-10-05T21:52:52.042Z,9.50
2018-10-05T21:55:20.995Z,8.27
2018-10-05T21:57:50.986Z,7.92
2018-10-05T22:00:19.999Z,9.10
2018-10-05T22:02:49.078Z,14.20
2018-10-05T22:05:18.035Z,9.87
2018-10-05T22:07:47.037Z,13.30
2018-10-05T22:10:16.010Z,11.60
2018-10-05T22:12:45.029Z,8.90
2018-10-05T22:15:14.596Z,9.90
2018-10-05T22:17:43.719Z,12.80
2018-10-05T22:20:13.306Z,8.20
2018-10-05T22:22:43.712Z,10.23
2018-10-05T22:25:13.213Z,12.20
2018-10-05T22:27:42.217Z,12.13
2018-10-05T22:30:11.179Z,11.50
2018-10-05T22:32:40.194Z,12.20
2018-10-05T22:35:09.972Z,10.70
2018-10-05T22:37:39.161Z,15.23
2018-10-05T22:40:08.163Z,14.20
2018-10-05T22:42:37.143Z,12.77
2018-10-05T22:45:06.160Z,8.08
2018-10-05T22:47:35.204Z,10.60
2018-10-05T22:50:04.150Z,10.65
2018-10-05T22:52:33.163Z,12.27
2018-10-05T22:55:02.198Z,9.98
2018-10-05T22:57:31.166Z,12.50
2018-10-05T23:00:00.144Z,9.57
2018-10-05T23:02:29.114Z,13.77
2018-10-05T23:04:58.083Z,8.63
2018-10-05T23:07:27.051Z,9.53
2018-10-05T23:09:56.004Z,11.03
2018-10-05T23:12:25.123Z,7.40
2018-10-05T23:14:54.150Z,8.40
2018-10-05T23:17:23.135Z,6.17
2018-10-05T23:19:52.096Z,10.40
2018-10-05T23:22:21.117Z,8.30
2018-10-05T23:24:50.123Z,7.97
2018-10-05T23:27:19.115Z,7.00
2018-10-05T23:29:48.089Z,7.53
2018-10-05T23:32:17.066Z,10.00
2018-10-05T23:34:46.515Z,5.73
2018-10-05T23:37:15.606Z,10.30
2018-10-05T23:39:44.586Z,7.20
2018-10-05T23:42:13.553Z,10.00
2018-10-05T23:44:42.534Z,6.33
2018-10-05T23:47:11.492Z,10.77
2018-10-05T23:49:40.478Z,9.18
2018-10-05T23:52:20.859Z,6.83
2018-10-05T23:54:49.898Z,7.78
2018-10-05T23:57:18.861Z,7.47
2018-10-05T23:59:47.814Z,9.03
